createdAt,value
2023-02-11T00:00:35.723Z,1.11
2023-02-11T00:01:35.676Z,1.08
2023-02-11T00:02:35.674Z,1.11
2023-02-11T00:03:35.622Z,1.10
2023-02-11T00:04:35.529Z,1.10
2023-02-11T00:05:35.458Z,1.10
2023-02-11T00:06:35.409Z,1.12
2023-02-11T00:07:35.334Z,1.11
2023-02-11T00:08:35.272Z,1.09
2023-02-11T00:09:35.200Z,1.09
2023-02-11T00:17:34.651Z,1.09
2023-02-11T00:18:34.590Z,1.10
2023-02-11T00:19:34.515Z,1.08
2023-02-11T00:20:34.445Z,1.07
2023-02-11T00:21:34.389Z,1.08
2023-02-11T00:22:34.340Z,1.10
2023-02-11T00:23:34.238Z,1.07
2023-02-11T00:24:34.168Z,1.07
2023-02-11T00:25:34.101Z,1.09
2023-02-11T00:26:34.035Z,1.09
2023-02-11T00:27:33.981Z,1.08
2023-02-11T00:28:33.969Z,1.07
2023-02-11T00:29:33.848Z,1.07
2023-02-11T00:30:33.870Z,1.07
2023-02-11T00:31:33.835Z,1.06
2023-02-11T00:32:33.645Z,1.06
2023-02-11T00:33:33.605Z,1.06
2023-02-11T00:34:33.550Z,1.06
2023-02-11T00:35:33.501Z,1.06
2023-02-11T00:36:33.448Z,1.08
2023-02-11T00:37:33.417Z,1.07
2023-02-11T00:38:33.361Z,1.07
2023-02-11T00:39:33.325Z,1.05
2023-02-11T00:40:33.261Z,1.08
2023-02-11T00:41:33.214Z,1.06
2023-02-11T00:42:33.188Z,1.06
2023-02-11T00:43:33.106Z,1.07
2023-02-11T00:44:33.051Z,1.06
2023-02-11T00:45:33.010Z,1.05
2023-02-11T00:46:33.014Z,1.06
2023-02-11T00:47:32.935Z,1.07
2023-02-11T00:48:32.879Z,1.06
2023-02-11T00:49:32.843Z,1.03
2023-02-11T00:50:32.803Z,1.05
2023-02-11T00:51:32.778Z,1.05
2023-02-11T00:52:32.713Z,1.05
2023-02-11T00:53:32.646Z,1.02
2023-02-11T00:54:32.601Z,1.04
2023-02-11T00:55:32.556Z,1.05
2023-02-11T00:56:32.499Z,1.04
2023-02-11T00:57:32.440Z,1.03
2023-02-11T00:58:32.388Z,1.03
2023-02-11T00:59:32.324Z,1.04
2023-02-11T01:00:32.274Z,1.03
2023-02-11T01:01:32.255Z,1.02
2023-02-11T01:02:32.149Z,1.04
2023-02-11T01:03:32.077Z,1.04
2023-02-11T01:04:32.013Z,1.04
2023-02-11T01:05:31.945Z,1.02
2023-02-11T01:06:31.888Z,1.03
2023-02-11T01:07:31.842Z,1.05
2023-02-11T01:08:31.775Z,1.04
2023-02-11T01:09:31.701Z,1.02
2023-02-11T01:10:31.639Z,1.01
2023-02-11T01:11:31.585Z,1.02
2023-02-11T01:12:32.563Z,1.04
2023-02-11T01:13:31.461Z,1.04
2023-02-11T01:14:31.393Z,1.02
2023-02-11T01:15:31.347Z,1.05
2023-02-11T01:16:31.270Z,1.02
2023-02-11T01:17:31.201Z,1.03
2023-02-11T01:18:31.142Z,1.03
2023-02-11T01:19:31.080Z,1.03
2023-02-11T01:20:31.015Z,1.01
2023-02-11T01:21:30.935Z,1.02
2023-02-11T01:22:30.876Z,1.02
2023-02-11T01:23:30.816Z,1.03
2023-02-11T01:24:30.743Z,1.02
2023-02-11T01:25:30.689Z,1.01
2023-02-11T01:26:30.628Z,1.01
2023-02-11T01:27:30.586Z,1.01
2023-02-11T01:28:30.566Z,1.00
2023-02-11T01:29:30.446Z,1.01
2023-02-11T01:30:30.414Z,1.03
2023-02-11T02:13:27.825Z,0.98
2023-02-11T02:14:27.789Z,0.98
2023-02-11T02:15:27.710Z,0.98
2023-02-11T02:16:27.676Z,0.98
2023-02-11T02:17:27.608Z,0.96
2023-02-11T02:18:27.602Z,0.98
2023-02-11T02:19:27.527Z,0.97
2023-02-11T02:20:27.419Z,0.99
2023-02-11T02:21:27.349Z,0.98
2023-02-11T02:22:27.290Z,0.97
2023-02-11T02:23:27.244Z,0.97
2023-02-11T02:24:27.172Z,0.96
2023-02-11T02:25:27.106Z,0.96
2023-02-11T02:26:27.046Z,0.98
2023-02-11T02:27:26.991Z,0.97
2023-02-11T02:28:26.946Z,0.97
2023-02-11T02:29:26.867Z,0.94
2023-02-11T02:30:26.875Z,0.98
2023-02-11T02:31:26.814Z,0.95
2023-02-11T02:32:26.684Z,0.96
2023-02-11T02:33:26.631Z,0.98
2023-02-11T02:34:26.570Z,0.95
2023-02-11T02:35:26.503Z,0.95
2023-02-11T02:36:26.448Z,0.96
2023-02-11T02:37:26.383Z,0.97
2023-02-11T02:38:26.321Z,0.96
2023-02-11T02:39:26.264Z,0.96
2023-02-11T02:40:26.198Z,0.95
2023-02-11T02:41:26.132Z,0.97
2023-02-11T02:42:26.065Z,0.96
2023-02-11T02:43:26.018Z,0.97
2023-02-11T02:44:25.952Z,0.95
2023-02-11T02:45:25.892Z,0.97
2023-02-11T02:46:25.934Z,0.96
2023-02-11T02:47:25.767Z,0.95
2023-02-11T02:52:25.470Z,0.95
2023-02-11T02:53:25.412Z,0.97
2023-02-11T02:54:25.362Z,0.95
2023-02-11T02:55:25.318Z,0.95
2023-02-11T02:56:25.247Z,0.96
2023-02-11T02:57:25.183Z,0.94
2023-02-11T05:34:16.225Z,0.84
2023-02-11T05:35:16.162Z,0.85
2023-02-11T05:36:16.110Z,0.85
2023-02-11T05:37:16.150Z,0.87
2023-02-11T05:38:16.007Z,0.86
2023-02-11T05:39:15.945Z,0.85
2023-02-11T05:40:15.898Z,0.87
2023-02-11T05:41:15.838Z,0.86
2023-02-11T05:42:15.794Z,0.86
2023-02-11T05:43:15.737Z,0.86
2023-02-11T05:44:15.695Z,0.86
2023-02-11T05:45:15.641Z,0.85
2023-02-11T05:46:15.685Z,0.85
2023-02-11T05:47:15.549Z,0.83
2023-02-11T05:48:15.520Z,0.86
2023-02-11T05:49:15.456Z,0.87
2023-02-11T05:50:15.413Z,0.88
2023-02-11T05:51:15.362Z,0.86
2023-02-11T05:52:15.304Z,0.86
2023-02-11T05:53:15.262Z,0.86
2023-02-11T05:54:15.224Z,0.85
2023-02-11T05:55:15.165Z,0.84
2023-02-11T08:28:07.130Z,0.82
2023-02-11T08:29:07.062Z,0.83
2023-02-11T08:30:07.017Z,0.81
2023-02-11T08:31:07.024Z,0.83
2023-02-11T08:32:06.933Z,0.86
2023-02-11T08:33:06.853Z,0.81
2023-02-11T08:34:06.795Z,0.83
2023-02-11T08:35:06.744Z,0.83
2023-02-11T08:36:06.687Z,0.83
2023-02-11T08:37:06.635Z,0.82
2023-02-11T08:38:06.583Z,0.83
2023-02-11T08:39:18.542Z,0.81
2023-02-11T08:41:06.380Z,0.82
2023-02-11T08:42:06.316Z,0.82
2023-02-11T08:43:08.100Z,0.83
2023-02-11T08:44:06.157Z,0.83
2023-02-11T08:45:06.092Z,0.84
2023-02-11T08:46:06.083Z,0.83
2023-02-11T08:47:05.934Z,0.83
2023-02-11T08:48:05.868Z,0.84
2023-02-11T08:49:05.797Z,0.83
2023-02-11T08:50:05.719Z,0.82
2023-02-11T08:51:05.644Z,0.84
2023-02-11T08:52:05.575Z,0.83
2023-02-11T08:53:05.537Z,0.82
2023-02-11T08:54:05.422Z,0.82
2023-02-11T08:55:05.411Z,0.82
2023-02-11T08:56:05.280Z,0.83
2023-02-11T08:57:05.207Z,0.84
2023-02-11T10:57:57.535Z,0.83
2023-02-11T10:58:57.497Z,0.83
2023-02-11T10:59:57.390Z,0.85
2023-02-11T11:00:57.343Z,0.81
2023-02-11T11:01:57.307Z,0.81
2023-02-11T11:02:57.189Z,0.81
2023-02-11T11:03:57.104Z,0.82
2023-02-11T11:04:57.103Z,0.82
2023-02-11T11:05:58.583Z,0.83
2023-02-11T11:06:56.955Z,0.82
2023-02-11T11:07:56.928Z,0.83
2023-02-11T11:08:56.905Z,0.83
2023-02-11T11:09:56.854Z,0.83
2023-02-11T11:10:56.848Z,0.83
2023-02-11T11:11:56.765Z,0.83
2023-02-11T11:12:56.734Z,0.83
2023-02-11T11:13:56.712Z,0.81
2023-02-11T11:14:56.674Z,0.83
2023-02-11T11:15:56.654Z,0.83
2023-02-11T11:16:56.631Z,0.83
2023-02-11T11:18:11.309Z,0.83
2023-02-11T11:19:56.448Z,0.83
2023-02-11T11:20:56.418Z,0.83
2023-02-11T11:21:56.331Z,0.84
2023-02-11T11:22:56.263Z,0.83
2023-02-11T11:23:56.146Z,0.84
2023-02-11T11:24:56.061Z,0.84
2023-02-11T11:25:55.979Z,0.86
2023-02-11T11:26:55.910Z,0.85
2023-02-11T11:27:55.939Z,0.83
2023-02-11T11:28:55.840Z,0.84
2023-02-11T11:29:55.823Z,0.84
2023-02-11T11:30:56.003Z,0.85
2023-02-11T11:31:55.806Z,0.85
2023-02-11T11:32:55.749Z,0.84
2023-02-11T11:33:55.735Z,0.82
2023-02-11T11:34:55.802Z,0.83
2023-02-11T11:35:55.695Z,0.83
2023-02-11T11:36:55.661Z,0.84
2023-02-11T11:37:55.640Z,0.83
2023-02-11T11:38:55.616Z,0.82
2023-02-11T11:39:55.598Z,0.83
2023-02-11T11:40:55.583Z,0.82
2023-02-11T11:41:55.573Z,0.84
2023-02-11T11:42:55.548Z,0.83
2023-02-11T11:43:55.527Z,0.84
2023-02-11T11:44:55.519Z,0.82
2023-02-11T11:45:55.502Z,0.83
2023-02-11T11:46:55.535Z,0.83
2023-02-11T11:47:55.483Z,0.85
2023-02-11T11:48:55.474Z,0.82
2023-02-11T11:49:55.471Z,0.83
2023-02-11T11:50:55.452Z,0.83
2023-02-11T11:51:55.444Z,0.81
2023-02-11T11:52:55.436Z,0.83
2023-02-11T11:53:55.420Z,0.80
2023-02-11T11:54:55.401Z,0.80
2023-02-11T11:55:57.919Z,0.82
2023-02-11T11:56:55.325Z,0.84
2023-02-11T11:57:55.248Z,0.83
2023-02-11T11:58:55.181Z,0.81
2023-02-11T13:53:48.148Z,0.82
2023-02-11T13:54:48.097Z,0.84
2023-02-11T13:55:48.058Z,0.83
2023-02-11T13:56:48.002Z,0.84
2023-02-11T13:57:47.948Z,0.82
2023-02-11T13:58:47.904Z,0.81
2023-02-11T13:59:47.841Z,0.85
2023-02-11T14:00:47.821Z,0.82
2023-02-11T14:01:47.755Z,0.83
2023-02-11T14:02:47.779Z,0.82
2023-02-11T14:03:47.672Z,0.82
2023-02-11T14:04:49.135Z,0.82
2023-02-11T14:05:47.602Z,0.84
2023-02-11T14:06:47.540Z,0.80
2023-02-11T14:07:47.488Z,0.83
2023-02-11T14:08:47.446Z,0.83
2023-02-11T14:09:47.406Z,0.82
2023-02-11T14:10:47.383Z,0.82
2023-02-11T14:11:47.342Z,0.84
2023-02-11T14:12:47.293Z,0.82
2023-02-11T14:13:47.262Z,0.84
2023-02-11T14:14:47.207Z,0.86
2023-02-11T14:15:47.172Z,0.82
2023-02-11T14:16:47.141Z,0.84
2023-02-11T14:17:47.085Z,0.84
2023-02-11T14:18:47.049Z,0.82
2023-02-11T14:19:47.004Z,0.82
2023-02-11T14:20:46.976Z,0.83
2023-02-11T14:21:46.939Z,0.84
2023-02-11T14:22:46.895Z,0.83
2023-02-11T14:23:46.859Z,0.83
2023-02-11T14:24:46.816Z,0.84
2023-02-11T14:25:46.767Z,0.82
2023-02-11T14:26:46.738Z,0.84
2023-02-11T14:27:46.681Z,0.83
2023-02-11T14:28:46.630Z,0.84
2023-02-11T14:29:46.588Z,0.84
2023-02-11T14:30:46.698Z,0.83
2023-02-11T14:31:46.603Z,0.84
2023-02-11T14:32:46.475Z,0.83
2023-02-11T14:33:46.429Z,0.84
2023-02-11T14:34:46.398Z,0.84
2023-02-11T14:35:46.378Z,0.82
2023-02-11T14:36:46.331Z,0.85
2023-02-11T14:37:48.567Z,0.85
2023-02-11T14:38:46.237Z,0.89
2023-02-11T14:39:46.170Z,0.83
2023-02-11T14:40:46.115Z,0.84
2023-02-11T14:41:46.035Z,0.85
2023-02-11T14:42:45.968Z,0.86
2023-02-11T14:43:45.893Z,0.83
2023-02-11T14:44:45.817Z,0.82
2023-02-11T14:45:45.748Z,0.86
2023-02-11T14:46:45.662Z,0.85
2023-02-11T14:47:45.588Z,0.86
2023-02-11T14:48:45.513Z,0.83
2023-02-11T14:49:45.453Z,0.83
2023-02-11T14:50:45.377Z,0.84
2023-02-11T14:51:45.306Z,0.85
2023-02-11T14:52:45.232Z,0.85
2023-02-11T14:53:45.174Z,0.84
2023-02-11T17:22:40.916Z,0.84
2023-02-11T17:23:40.898Z,0.87
2023-02-11T17:24:40.888Z,0.87
2023-02-11T17:26:40.881Z,0.87
2023-02-11T17:27:40.851Z,0.86
2023-02-11T17:28:40.847Z,0.88
2023-02-11T17:29:40.832Z,0.88
2023-02-11T18:30:40.275Z,0.84
2023-02-11T18:31:40.274Z,0.85
2023-02-11T18:32:40.246Z,0.86
2023-02-11T18:33:40.248Z,0.84
2023-02-11T18:34:40.235Z,0.90
2023-02-11T18:35:40.225Z,0.87
2023-02-11T18:36:40.209Z,0.87
2023-02-11T18:37:40.205Z,0.84
2023-02-11T18:38:40.191Z,0.89
2023-02-11T18:39:40.172Z,0.86
2023-02-11T18:40:40.161Z,0.86
2023-02-11T18:41:40.141Z,0.83
2023-02-11T18:42:40.145Z,0.89
2023-02-11T18:43:40.173Z,0.86
2023-02-11T18:44:40.120Z,0.82
2023-02-11T18:45:40.239Z,0.87
2023-02-11T18:46:40.116Z,0.88
2023-02-11T18:47:40.115Z,0.87
2023-02-11T18:48:40.109Z,0.86
2023-02-11T18:49:40.102Z,0.86
2023-02-11T18:50:40.095Z,0.85
2023-02-11T18:51:40.079Z,0.85
2023-02-11T18:52:40.073Z,0.87
2023-02-11T18:53:40.065Z,0.85
2023-02-11T18:54:40.052Z,0.83
2023-02-11T18:55:40.040Z,0.85
2023-02-11T18:56:40.034Z,0.85
2023-02-11T18:57:40.081Z,0.85
2023-02-11T18:58:40.092Z,0.84
2023-02-11T18:59:40.001Z,0.85
2023-02-11T19:00:39.987Z,0.83
2023-02-11T19:01:40.086Z,0.85
2023-02-11T19:02:39.963Z,0.85
2023-02-11T19:03:39.948Z,0.85
2023-02-11T19:04:39.988Z,0.87
2023-02-11T19:05:39.936Z,0.88
2023-02-11T19:06:39.917Z,0.84
2023-02-11T19:07:39.915Z,0.83
2023-02-11T19:08:39.909Z,0.84
2023-02-11T19:09:39.920Z,0.85
2023-02-11T19:10:39.905Z,0.85
2023-02-11T19:11:39.898Z,0.86
2023-02-11T19:12:39.900Z,0.85
2023-02-11T19:13:39.882Z,0.85
2023-02-11T19:14:39.872Z,0.81
2023-02-11T19:15:39.869Z,0.81
2023-02-11T19:16:39.944Z,0.82
2023-02-11T19:17:39.845Z,0.85
2023-02-11T19:18:39.867Z,0.85
2023-02-11T19:19:39.836Z,0.85
2023-02-11T19:20:39.848Z,0.87
2023-02-11T19:21:39.833Z,0.87
2023-02-11T19:22:39.833Z,0.86
2023-02-11T19:23:39.831Z,0.87
2023-02-11T19:24:39.830Z,0.82
2023-02-11T19:25:39.826Z,0.85
2023-02-11T19:26:39.835Z,0.82
2023-02-11T19:27:39.821Z,0.84
2023-02-11T19:28:39.884Z,0.85
2023-02-11T19:29:39.817Z,0.81
2023-02-11T19:30:39.855Z,0.85
2023-02-11T19:31:39.864Z,0.86
2023-02-11T19:32:39.787Z,0.84
2023-02-11T19:33:39.816Z,0.84
2023-02-11T19:34:39.763Z,0.84
2023-02-11T19:35:39.751Z,0.82
2023-02-11T19:36:39.749Z,0.82
2023-02-11T19:37:39.734Z,0.87
2023-02-11T19:38:39.723Z,0.85
2023-02-11T19:39:39.719Z,0.85
2023-02-11T19:40:39.710Z,0.85
2023-02-11T19:41:39.805Z,0.83
2023-02-11T19:42:39.687Z,0.84
2023-02-11T19:43:39.695Z,0.86
2023-02-11T19:44:39.679Z,0.85
2023-02-11T19:45:39.680Z,0.86
2023-02-11T19:46:39.795Z,0.85
2023-02-11T19:47:39.658Z,0.83
2023-02-11T19:48:39.658Z,0.85
2023-02-11T19:49:39.657Z,0.84
2023-02-11T19:50:39.652Z,0.87
2023-02-11T19:51:39.746Z,0.83
2023-02-11T19:52:39.631Z,0.83
2023-02-11T19:53:39.631Z,0.84
2023-02-11T19:54:39.649Z,0.86
2023-02-11T19:55:39.630Z,0.84
2023-02-11T19:56:39.632Z,0.85
2023-02-11T19:57:39.629Z,0.85
2023-02-11T19:58:39.630Z,0.89
2023-02-11T20:00:39.625Z,0.86
2023-02-11T20:01:39.666Z,0.86
2023-02-11T20:02:39.675Z,0.85
2023-02-11T20:03:42.155Z,0.88
2023-02-11T20:04:39.569Z,0.83
2023-02-11T20:05:39.488Z,0.82
2023-02-11T20:06:39.429Z,0.86
2023-02-11T20:07:39.366Z,0.86
2023-02-11T20:08:39.308Z,0.84
2023-02-11T20:09:39.256Z,0.84
2023-02-11T20:10:39.175Z,0.85
2023-02-11T20:11:39.129Z,0.83
2023-02-11T20:12:39.053Z,0.84
2023-02-11T20:13:38.994Z,0.87
2023-02-11T20:14:38.934Z,0.82
2023-02-11T20:15:38.952Z,0.85
2023-02-11T20:16:48.150Z,0.83
2023-02-11T21:30:38.115Z,0.85
2023-02-11T22:13:37.957Z,0.86
2023-02-11T22:14:37.972Z,0.83
2023-02-11T22:15:37.974Z,0.85
2023-02-11T22:16:38.032Z,0.84
2023-02-11T22:17:38.065Z,0.84
2023-02-11T22:18:37.963Z,0.82
2023-02-11T22:19:37.968Z,0.80
2023-02-11T22:20:37.951Z,0.83
2023-02-11T22:21:37.950Z,0.82
2023-02-11T22:22:37.930Z,0.85
2023-02-11T22:23:37.930Z,0.80
2023-02-11T22:24:37.938Z,0.84
2023-02-11T22:25:37.942Z,0.81
2023-02-11T22:26:37.948Z,0.82
2023-02-11T22:27:37.950Z,0.82
2023-02-11T22:28:37.982Z,0.84
2023-02-11T22:29:37.942Z,0.84
2023-02-11T22:30:37.971Z,0.79
2023-02-11T22:31:38.112Z,0.83
2023-02-11T22:32:37.965Z,0.81
2023-02-11T23:37:37.996Z,0.79
2023-02-11T23:38:38.008Z,0.84
2023-02-11T23:39:38.007Z,0.82
2023-02-11T23:40:38.017Z,0.82
2023-02-11T23:41:38.011Z,0.82
2023-02-11T23:42:38.016Z,0.83
2023-02-11T23:43:38.030Z,0.83
2023-02-11T23:44:38.037Z,0.83
2023-02-11T23:45:38.080Z,0.85
2023-02-11T23:46:38.044Z,0.82
2023-02-11T23:47:38.041Z,0.82
2023-02-11T23:48:38.069Z,0.83
2023-02-11T23:49:38.063Z,0.82
2023-02-11T23:50:38.066Z,0.83
2023-02-11T23:51:38.086Z,0.81
2023-02-11T23:52:38.081Z,0.83
2023-02-11T23:53:38.115Z,0.83
2023-02-11T23:54:38.086Z,0.83
2023-02-11T23:55:38.093Z,0.84
2023-02-11T23:56:38.101Z,0.83
2023-02-11T23:57:38.108Z,0.79
2023-02-11T23:58:38.102Z,0.82
2023-02-11T23:59:38.182Z,0.82
